Aviation Digital Data Service (ADDS)

Output produced by METARs form (1707 UTC 24 April 2017)
found at http://www.aviationweather.gov/adds/metars/
 
HKEL 241600Z 08004KT 9999 FEW019CB BKN090 BKN280 21/11 Q1023
TAF HKEL 241100Z 2412/2512 08010KT 9999 FEW023CB SCT024 
     TEMPO 2412/2418 VRB05KT -TSRA FEW020CB SCT021 BKN080 
     BECMG 2420/2423 08005KT FEW018 SCT090 
     BECMG 2508/2511 06010KT FEW023CB SCT024
       
HKJK 241630Z 09009KT 9999 FEW027 SCT250 22/14 Q1021 NOSIG
TAF HKJK 241100Z 2412/2518 08010KT 9999 BKN025 
     TEMPO 2412/2418 FEW026CB SCT027 
     BECMG 2420/2423 04005KT SCT022 
     TEMPO 2500/2506 SCT008 BKN015 
     BECMG 2508/2511 09010KT BKN027 
     TEMPO 2512/2518 -SHRA FEW025CB SCT026
       
HKKI 241600Z 28003KT 9999 FEW019CB BKN270 23/17 Q1015
TAF HKKI 241100Z 2412/2512 24010KT 9999 FEW023CB BKN024 
     TEMPO 2412/2418 VRB10KT -TSRA FEW022CB SCT023 BKN090 
     BECMG 2420/2423 00000KT FEW018CB BKN080 
     BECMG 2508/2511 24010KT FEW024CB SCT025 BKN080
       
HKML 241600Z 18013KT 9999 FEW023 SCT240 29/25 Q1011
HKMO 241600Z 18008KT 9999 FEW025 28/25 Q1012 NOSIG
TAF HKMO 240500Z 2406/2512 17010KT 9999 FEW024CB SCT025 
     BECMG 2415/2418 SCT023 
     BECMG 2421/2424 20005KT FEW022 
     BECMG 2500/2506 22005KT SCT020 
     BECMG 2509/2512 18010KT SCT026
       
HKNW 241600Z 09012KT 9999 SCT026 BKN090 23/15 Q1020